createdAt,value
2019-05-26T00:02:45.692Z,11.94
2019-05-26T00:07:39.748Z,11.87
2019-05-26T00:12:33.702Z,11.78
2019-05-26T00:17:27.672Z,11.66
2019-05-26T00:22:21.846Z,11.59
2019-05-26T00:27:16.127Z,11.47
2019-05-26T00:32:10.091Z,11.53
2019-05-26T00:37:04.394Z,11.48
2019-05-26T00:41:58.362Z,11.53
2019-05-26T00:46:52.371Z,11.45
2019-05-26T00:51:46.416Z,11.34
2019-05-26T00:56:40.471Z,11.35
2019-05-26T01:01:34.435Z,11.36
2019-05-26T01:06:28.379Z,11.32
2019-05-26T01:11:22.350Z,11.20
2019-05-26T01:16:16.364Z,11.17
2019-05-26T01:21:10.339Z,11.24
2019-05-26T01:26:04.513Z,11.27
2019-05-26T01:30:58.471Z,11.30
2019-05-26T01:35:52.642Z,11.31
2019-05-26T01:40:48.620Z,11.59
2019-05-26T01:45:42.622Z,11.82
2019-05-26T01:50:36.567Z,11.92
2019-05-26T01:55:30.525Z,12.03
2019-05-26T02:00:24.826Z,12.17
2019-05-26T02:05:18.801Z,12.07
2019-05-26T02:10:13.247Z,11.91
2019-05-26T02:15:08.237Z,11.83
2019-05-26T02:20:04.010Z,11.99
2019-05-26T02:24:57.985Z,12.11
2019-05-26T02:29:53.231Z,12.25
2019-05-26T02:34:47.212Z,12.37
2019-05-26T02:39:43.953Z,12.39
2019-05-26T02:44:37.911Z,12.35
2019-05-26T02:49:32.014Z,12.44
2019-05-26T02:54:25.984Z,12.55
2019-05-26T02:59:20.036Z,12.60
2019-05-26T03:04:14.304Z,12.43
2019-05-26T03:09:21.780Z,12.27
2019-05-26T03:14:04.362Z,12.21
2019-05-26T03:18:58.481Z,12.17
2019-05-26T03:23:55.743Z,12.26
2019-05-26T03:28:49.816Z,12.32
2019-05-26T03:33:43.760Z,12.29
2019-05-26T03:38:37.739Z,12.08
2019-05-26T03:43:31.904Z,11.94
2019-05-26T03:48:25.899Z,11.87
2019-05-26T03:53:19.854Z,11.89
2019-05-26T03:58:13.817Z,11.84
2019-05-26T04:03:07.905Z,11.82
2019-05-26T04:08:05.668Z,11.83
2019-05-26T04:12:59.815Z,11.76
2019-05-26T04:17:53.788Z,11.81
2019-05-26T04:22:47.948Z,11.96
2019-05-26T04:27:41.930Z,11.98
2019-05-26T04:32:35.874Z,11.93
2019-05-26T04:37:29.846Z,12.04
2019-05-26T04:42:26.436Z,12.18
2019-05-26T04:47:20.413Z,12.23
2019-05-26T04:52:16.264Z,12.33
2019-05-26T04:57:10.320Z,12.57
2019-05-26T05:02:04.355Z,12.72
2019-05-26T05:06:58.326Z,12.99
2019-05-26T05:11:52.287Z,13.22
2019-05-26T05:16:46.273Z,13.48
2019-05-26T05:21:40.218Z,13.30
2019-05-26T05:26:34.276Z,13.21
2019-05-26T05:31:28.248Z,13.34
2019-05-26T05:36:22.205Z,13.67
2019-05-26T05:41:16.172Z,13.69
2019-05-26T05:46:10.191Z,13.67
2019-05-26T05:51:04.366Z,13.80
2019-05-26T05:55:58.325Z,13.89
2019-05-26T06:00:52.286Z,13.86
2019-05-26T06:05:46.245Z,14.01
2019-05-26T06:10:40.303Z,14.01
2019-05-26T06:15:34.261Z,14.06
2019-05-26T06:20:28.331Z,14.10
2019-05-26T06:25:22.323Z,14.30
2019-05-26T06:30:16.690Z,14.38
2019-05-26T06:35:10.867Z,14.27
2019-05-26T06:40:06.155Z,14.51
2019-05-26T06:45:00.127Z,14.88
2019-05-26T06:49:55.993Z,15.09
2019-05-26T06:54:49.949Z,15.35
2019-05-26T06:59:43.912Z,15.27
2019-05-26T07:04:37.917Z,15.79
2019-05-26T07:09:31.864Z,16.23
2019-05-26T07:14:25.827Z,16.15
2019-05-26T07:19:19.815Z,16.35
2019-05-26T07:24:13.768Z,16.93
2019-05-26T07:29:08.132Z,17.04
2019-05-26T07:34:02.098Z,16.82
2019-05-26T07:38:56.103Z,17.04
2019-05-26T07:43:50.101Z,17.16
2019-05-26T07:48:44.060Z,17.20
2019-05-26T07:53:38.160Z,17.41
2019-05-26T07:58:32.262Z,17.31
2019-05-26T08:03:26.223Z,17.21
2019-05-26T08:08:20.185Z,17.06
2019-05-26T08:13:14.161Z,17.28
2019-05-26T08:18:08.241Z,17.29
2019-05-26T08:23:04.767Z,17.37
2019-05-26T08:27:58.762Z,17.59
2019-05-26T08:32:52.761Z,17.77
2019-05-26T08:37:46.865Z,17.73
2019-05-26T08:42:44.832Z,17.94
2019-05-26T08:47:40.532Z,18.26
2019-05-26T08:52:34.512Z,18.20
2019-05-26T08:57:30.373Z,18.29
2019-05-26T09:02:24.346Z,18.76
2019-05-26T09:07:18.457Z,19.55
2019-05-26T09:12:12.450Z,21.13
2019-05-26T09:17:06.444Z,21.85
2019-05-26T09:22:00.588Z,21.85
2019-05-26T09:26:54.684Z,22.44
2019-05-26T09:31:48.894Z,22.66
2019-05-26T09:36:42.886Z,22.50
2019-05-26T09:41:36.938Z,22.69
2019-05-26T09:46:31.151Z,22.59
2019-05-26T09:51:25.095Z,22.33
2019-05-26T09:56:19.155Z,22.24
2019-05-26T10:01:13.213Z,22.11
2019-05-26T10:06:07.300Z,21.63
2019-05-26T10:11:03.701Z,21.67
2019-05-26T10:15:57.688Z,21.31
2019-05-26T10:20:51.701Z,21.15
2019-05-26T10:25:45.684Z,21.75
2019-05-26T10:30:39.712Z,22.24
2019-05-26T10:35:33.798Z,21.27
2019-05-26T10:40:29.384Z,21.14
2019-05-26T10:45:23.405Z,21.85
2019-05-26T10:50:17.510Z,22.00
2019-05-26T10:55:11.709Z,21.99
2019-05-26T11:00:09.440Z,21.77
2019-05-26T11:05:05.570Z,21.55
2019-05-26T11:09:59.481Z,21.56
2019-05-26T11:14:53.475Z,21.72
2019-05-26T11:19:47.595Z,21.91
2019-05-26T11:24:41.734Z,22.24
2019-05-26T11:29:35.708Z,21.75
2019-05-26T11:34:29.986Z,21.81
2019-05-26T11:39:23.973Z,21.98
2019-05-26T11:44:18.564Z,21.92
2019-05-26T11:49:12.762Z,22.72
2019-05-26T11:54:08.741Z,22.64
2019-05-26T11:59:05.575Z,22.13
2019-05-26T12:03:59.707Z,22.14
2019-05-26T12:08:53.812Z,22.49
2019-05-26T12:13:47.912Z,22.69
2019-05-26T12:18:41.910Z,22.11
2019-05-26T12:23:36.013Z,22.33
2019-05-26T12:28:30.103Z,22.76
2019-05-26T12:33:24.211Z,22.28
2019-05-26T12:38:18.196Z,22.54
2019-05-26T12:43:12.438Z,22.43
2019-05-26T12:48:06.554Z,22.25
2019-05-26T12:53:00.777Z,22.10
2019-05-26T12:57:56.796Z,22.37
2019-05-26T13:02:50.907Z,22.93
2019-05-26T13:07:44.962Z,22.86
2019-05-26T13:12:39.034Z,22.89
2019-05-26T13:17:33.218Z,23.05
2019-05-26T13:22:27.196Z,23.28
2019-05-26T13:27:21.219Z,23.19
2019-05-26T13:32:15.192Z,23.23
2019-05-26T13:37:09.154Z,22.60
2019-05-26T13:42:03.492Z,22.94
2019-05-26T13:46:57.475Z,24.00
2019-05-26T13:51:51.584Z,24.16
2019-05-26T13:56:45.787Z,24.44
2019-05-26T14:01:41.716Z,23.66
2019-05-26T14:06:35.724Z,24.63
2019-05-26T14:11:29.834Z,24.70
2019-05-26T14:16:25.320Z,24.46
2019-05-26T14:21:19.488Z,23.68
2019-05-26T14:26:13.577Z,23.53
2019-05-26T14:31:07.571Z,22.71
2019-05-26T14:36:01.710Z,21.85
2019-05-26T14:40:55.758Z,21.65
2019-05-26T14:45:53.651Z,21.80
2019-05-26T14:50:49.057Z,22.09
2019-05-26T14:55:43.130Z,21.79
2019-05-26T15:00:37.236Z,21.41
2019-05-26T15:05:31.353Z,21.16
2019-05-26T15:10:25.544Z,21.14
2019-05-26T15:15:19.781Z,21.11
2019-05-26T15:20:14.291Z,20.97
2019-05-26T15:25:08.363Z,20.74
2019-05-26T15:30:04.684Z,20.69
2019-05-26T15:35:00.072Z,20.56
2019-05-26T15:39:54.212Z,20.61
2019-05-26T15:44:49.480Z,20.79
2019-05-26T15:49:43.560Z,21.03
2019-05-26T15:54:37.536Z,21.08
2019-05-26T15:59:31.622Z,21.02
2019-05-26T16:04:25.807Z,20.89
2019-05-26T16:09:19.818Z,20.93
2019-05-26T16:14:13.800Z,21.00
2019-05-26T16:19:07.819Z,21.19
2019-05-26T16:24:01.813Z,21.19
2019-05-26T16:28:56.144Z,20.79
2019-05-26T16:33:50.148Z,20.79
2019-05-26T16:38:44.256Z,20.81
2019-05-26T16:43:38.562Z,21.15
2019-05-26T16:48:32.663Z,21.27
2019-05-26T16:53:26.780Z,21.42
2019-05-26T16:58:20.787Z,21.52
2019-05-26T17:03:14.897Z,21.66
2019-05-26T17:08:08.975Z,21.51
2019-05-26T17:13:03.251Z,21.42
2019-05-26T17:17:57.239Z,21.05
2019-05-26T17:22:51.334Z,20.83
2019-05-26T17:27:45.439Z,20.62
2019-05-26T17:32:39.469Z,20.49
2019-05-26T17:37:33.588Z,20.28
2019-05-26T17:42:27.743Z,20.19
2019-05-26T17:47:30.231Z,20.23
2019-05-26T17:52:18.559Z,20.56
2019-05-26T17:57:12.686Z,20.81
2019-05-26T18:02:06.786Z,21.00
2019-05-26T18:07:00.945Z,21.07
2019-05-26T18:11:55.221Z,20.92
2019-05-26T18:16:49.304Z,20.86
2019-05-26T18:21:43.487Z,20.74
2019-05-26T18:26:37.677Z,20.70
2019-05-26T18:31:31.903Z,20.50
2019-05-26T18:36:26.210Z,20.24
2019-05-26T18:41:20.426Z,20.13
2019-05-26T18:46:14.696Z,20.00
2019-05-26T18:51:08.904Z,19.79
2019-05-26T18:56:03.414Z,19.61
2019-05-26T19:00:57.693Z,19.46
2019-05-26T19:05:51.957Z,19.33
2019-05-26T19:10:46.395Z,19.16
2019-05-26T19:15:40.624Z,19.04
2019-05-26T19:20:36.381Z,18.95
2019-05-26T19:25:42.269Z,18.89
2019-05-26T19:30:36.460Z,18.80
2019-05-26T19:35:30.448Z,18.89
2019-05-26T19:40:24.487Z,18.89
2019-05-26T19:45:18.803Z,18.87
2019-05-26T19:50:13.302Z,18.84
2019-05-26T19:55:07.482Z,18.91
2019-05-26T20:00:13.382Z,18.91
2019-05-26T20:05:07.840Z,18.85
2019-05-26T20:10:06.479Z,18.86
2019-05-26T20:15:06.511Z,18.87
2019-05-26T20:20:00.711Z,18.78
2019-05-26T20:24:54.801Z,18.71
2019-05-26T20:29:49.027Z,18.62
2019-05-26T20:34:43.146Z,18.56
2019-05-26T20:39:37.242Z,18.48
2019-05-26T20:44:31.220Z,18.39
2019-05-26T20:49:25.385Z,18.28
2019-05-26T20:54:19.476Z,18.18
2019-05-26T20:59:13.660Z,18.04
2019-05-26T21:04:07.747Z,17.86
2019-05-26T21:09:01.736Z,17.59
2019-05-26T21:13:55.711Z,17.40
2019-05-26T21:18:49.696Z,17.38
2019-05-26T21:23:43.798Z,17.33
2019-05-26T21:28:37.824Z,17.25
2019-05-26T21:33:31.929Z,17.02
2019-05-26T21:38:27.821Z,16.89
2019-05-26T21:43:21.810Z,16.78
2019-05-26T21:48:15.796Z,16.62
2019-05-26T21:53:09.797Z,16.65
2019-05-26T21:58:03.956Z,16.42
2019-05-26T22:02:58.062Z,16.27
2019-05-26T22:07:52.272Z,16.25
2019-05-26T22:12:46.487Z,16.22
2019-05-26T22:17:40.502Z,16.10
2019-05-26T22:22:34.546Z,15.98
2019-05-26T22:27:28.521Z,15.88
2019-05-26T22:32:22.673Z,15.79
2019-05-26T22:37:16.600Z,15.71
2019-05-26T22:42:10.601Z,15.67
2019-05-26T22:47:04.599Z,15.64
2019-05-26T22:51:58.581Z,15.71
2019-05-26T22:56:52.660Z,15.78
2019-05-26T23:01:46.728Z,15.85
2019-05-26T23:06:40.710Z,15.85
2019-05-26T23:11:35.078Z,15.88
2019-05-26T23:16:29.119Z,15.95
2019-05-26T23:21:23.221Z,15.99
2019-05-26T23:26:17.180Z,16.05
2019-05-26T23:31:11.176Z,16.06
2019-05-26T23:36:05.250Z,16.04
2019-05-26T23:40:59.243Z,16.06
2019-05-26T23:45:53.309Z,16.10
2019-05-26T23:50:47.292Z,16.16
2019-05-26T23:55:41.258Z,16.12
